sensor_id;sensor_type;location;lat;lon;timestamp;temperature;humidity
19281;DHT22;9774;52.034;5.342;2024-02-21T00:02:24;14.10;67.40
19281;DHT22;9774;52.034;5.342;2024-02-21T00:04:51;14.10;67.30
19281;DHT22;9774;52.034;5.342;2024-02-21T00:07:18;14.10;67.30
19281;DHT22;9774;52.034;5.342;2024-02-21T00:09:46;14.00;67.20
19281;DHT22;9774;52.034;5.342;2024-02-21T00:12:13;14.00;67.20
19281;DHT22;9774;52.034;5.342;2024-02-21T00:14:40;14.00;67.80
19281;DHT22;9774;52.034;5.342;2024-02-21T00:17:08;14.00;67.20
19281;DHT22;9774;52.034;5.342;2024-02-21T00:19:35;14.00;67.20
19281;DHT22;9774;52.034;5.342;2024-02-21T00:22:02;14.00;67.20
19281;DHT22;9774;52.034;5.342;2024-02-21T00:24:29;14.00;67.20
19281;DHT22;9774;52.034;5.342;2024-02-21T00:26:58;14.00;67.20
19281;DHT22;9774;52.034;5.342;2024-02-21T00:29:25;14.00;67.20
19281;DHT22;9774;52.034;5.342;2024-02-21T00:31:53;14.00;67.20
19281;DHT22;9774;52.034;5.342;2024-02-21T00:34:20;14.00;67.30
19281;DHT22;9774;52.034;5.342;2024-02-21T00:36:47;14.00;67.30
19281;DHT22;9774;52.034;5.342;2024-02-21T00:39:15;14.00;67.20
19281;DHT22;9774;52.034;5.342;2024-02-21T00:41:42;13.90;67.20
19281;DHT22;9774;52.034;5.342;2024-02-21T00:44:11;14.00;67.30
19281;DHT22;9774;52.034;5.342;2024-02-21T00:46:38;13.90;67.20
19281;DHT22;9774;52.034;5.342;2024-02-21T00:49:05;14.00;67.30
19281;DHT22;9774;52.034;5.342;2024-02-21T00:51:32;13.90;67.30
19281;DHT22;9774;52.034;5.342;2024-02-21T00:53:59;13.90;67.30
19281;DHT22;9774;52.034;5.342;2024-02-21T00:56:27;13.90;68.10
19281;DHT22;9774;52.034;5.342;2024-02-21T00:58:55;13.90;67.40
19281;DHT22;9774;52.034;5.342;2024-02-21T01:01:24;14.00;67.40
19281;DHT22;9774;52.034;5.342;2024-02-21T01:03:52;13.90;67.30
19281;DHT22;9774;52.034;5.342;2024-02-21T01:06:20;13.90;68.10
19281;DHT22;9774;52.034;5.342;2024-02-21T01:08:47;13.90;67.30
19281;DHT22;9774;52.034;5.342;2024-02-21T01:11:14;13.90;67.30
19281;DHT22;9774;52.034;5.342;2024-02-21T01:13:42;13.90;67.40
19281;DHT22;9774;52.034;5.342;2024-02-21T01:16:09;13.90;67.40
19281;DHT22;9774;52.034;5.342;2024-02-21T01:18:38;13.90;67.40
19281;DHT22;9774;52.034;5.342;2024-02-21T01:21:06;13.90;67.40
19281;DHT22;9774;52.034;5.342;2024-02-21T01:23:34;13.90;67.40
19281;DHT22;9774;52.034;5.342;2024-02-21T01:26:01;13.90;67.50
19281;DHT22;9774;52.034;5.342;2024-02-21T01:28:29;13.90;67.50
19281;DHT22;9774;52.034;5.342;2024-02-21T01:30:56;13.90;67.50
19281;DHT22;9774;52.034;5.342;2024-02-21T01:33:23;13.90;67.50
19281;DHT22;9774;52.034;5.342;2024-02-21T01:35:52;13.90;67.50
19281;DHT22;9774;52.034;5.342;2024-02-21T01:38:19;13.90;67.50
19281;DHT22;9774;52.034;5.342;2024-02-21T01:40:46;13.90;67.50
19281;DHT22;9774;52.034;5.342;2024-02-21T01:43:17;13.90;68.10
19281;DHT22;9774;52.034;5.342;2024-02-21T01:45:49;13.80;67.40
19281;DHT22;9774;52.034;5.342;2024-02-21T01:48:18;13.90;67.50
19281;DHT22;9774;52.034;5.342;2024-02-21T01:50:45;13.90;67.50
19281;DHT22;9774;52.034;5.342;2024-02-21T01:53:16;13.80;67.40
19281;DHT22;9774;52.034;5.342;2024-02-21T01:55:45;13.80;67.50
19281;DHT22;9774;52.034;5.342;2024-02-21T01:58:13;13.90;67.50
19281;DHT22;9774;52.034;5.342;2024-02-21T02:00:42;13.80;67.60
19281;DHT22;9774;52.034;5.342;2024-02-21T02:03:11;13.80;67.50
19281;DHT22;9774;52.034;5.342;2024-02-21T02:05:43;13.80;67.50
19281;DHT22;9774;52.034;5.342;2024-02-21T02:08:11;13.80;67.50
19281;DHT22;9774;52.034;5.342;2024-02-21T02:10:41;13.90;67.50
19281;DHT22;9774;52.034;5.342;2024-02-21T02:13:08;13.90;67.50
19281;DHT22;9774;52.034;5.342;2024-02-21T02:15:40;13.80;67.40
19281;DHT22;9774;52.034;5.342;2024-02-21T02:18:07;13.80;67.50
19281;DHT22;9774;52.034;5.342;2024-02-21T02:20:35;13.90;67.50
19281;DHT22;9774;52.034;5.342;2024-02-21T02:23:07;13.90;67.50
19281;DHT22;9774;52.034;5.342;2024-02-21T02:25:38;13.80;68.10
19281;DHT22;9774;52.034;5.342;2024-02-21T02:28:07;13.80;67.40
19281;DHT22;9774;52.034;5.342;2024-02-21T02:30:35;13.80;67.50
19281;DHT22;9774;52.034;5.342;2024-02-21T02:33:04;13.80;67.40
19281;DHT22;9774;52.034;5.342;2024-02-21T02:35:31;13.80;67.40
19281;DHT22;9774;52.034;5.342;2024-02-21T02:38:00;13.80;67.40
19281;DHT22;9774;52.034;5.342;2024-02-21T02:40:28;13.80;67.40
19281;DHT22;9774;52.034;5.342;2024-02-21T02:42:56;13.80;67.50
19281;DHT22;9774;52.034;5.342;2024-02-21T02:45:23;13.80;67.40
19281;DHT22;9774;52.034;5.342;2024-02-21T02:47:52;13.80;67.40
19281;DHT22;9774;52.034;5.342;2024-02-21T02:50:20;13.80;68.20
19281;DHT22;9774;52.034;5.342;2024-02-21T02:52:47;13.80;67.50
19281;DHT22;9774;52.034;5.342;2024-02-21T02:55:14;13.80;67.40
19281;DHT22;9774;52.034;5.342;2024-02-21T02:57:42;13.80;67.40
19281;DHT22;9774;52.034;5.342;2024-02-21T03:00:13;13.80;67.40
19281;DHT22;9774;52.034;5.342;2024-02-21T03:02:42;13.80;67.40
19281;DHT22;9774;52.034;5.342;2024-02-21T03:05:14;13.80;67.40
19281;DHT22;9774;52.034;5.342;2024-02-21T03:07:42;13.80;67.40
19281;DHT22;9774;52.034;5.342;2024-02-21T03:10:11;13.80;67.40
19281;DHT22;9774;52.034;5.342;2024-02-21T03:12:39;13.80;67.40
19281;DHT22;9774;52.034;5.342;2024-02-21T03:15:07;13.90;67.40
19281;DHT22;9774;52.034;5.342;2024-02-21T03:17:35;13.80;67.40
19281;DHT22;9774;52.034;5.342;2024-02-21T03:20:03;13.80;67.40
19281;DHT22;9774;52.034;5.342;2024-02-21T03:22:34;13.80;67.40
19281;DHT22;9774;52.034;5.342;2024-02-21T03:25:01;13.80;67.40
19281;DHT22;9774;52.034;5.342;2024-02-21T03:27:29;13.80;67.30
19281;DHT22;9774;52.034;5.342;2024-02-21T03:29:56;13.80;67.40
19281;DHT22;9774;52.034;5.342;2024-02-21T03:32:23;13.80;67.30
19281;DHT22;9774;52.034;5.342;2024-02-21T03:34:51;13.80;67.40
19281;DHT22;9774;52.034;5.342;2024-02-21T03:37:18;13.80;67.40
19281;DHT22;9774;52.034;5.342;2024-02-21T03:39:45;13.80;67.30
19281;DHT22;9774;52.034;5.342;2024-02-21T03:42:12;13.80;67.30
19281;DHT22;9774;52.034;5.342;2024-02-21T03:44:40;13.80;67.30
19281;DHT22;9774;52.034;5.342;2024-02-21T03:47:07;13.80;67.30
19281;DHT22;9774;52.034;5.342;2024-02-21T03:49:37;13.70;67.20
19281;DHT22;9774;52.034;5.342;2024-02-21T03:52:05;13.70;67.30
19281;DHT22;9774;52.034;5.342;2024-02-21T03:54:33;13.70;67.30
19281;DHT22;9774;52.034;5.342;2024-02-21T03:57:00;13.80;67.40
19281;DHT22;9774;52.034;5.342;2024-02-21T03:59:28;13.70;67.20
19281;DHT22;9774;52.034;5.342;2024-02-21T04:01:55;13.70;67.30
19281;DHT22;9774;52.034;5.342;2024-02-21T04:04:22;13.70;67.30
19281;DHT22;9774;52.034;5.342;2024-02-21T04:06:49;13.70;67.30
19281;DHT22;9774;52.034;5.342;2024-02-21T04:09:19;13.70;67.40
19281;DHT22;9774;52.034;5.342;2024-02-21T04:11:46;13.70;67.40
19281;DHT22;9774;52.034;5.342;2024-02-21T04:14:13;13.70;67.40
19281;DHT22;9774;52.034;5.342;2024-02-21T04:16:40;13.70;67.30
19281;DHT22;9774;52.034;5.342;2024-02-21T04:19:07;13.70;67.30
19281;DHT22;9774;52.034;5.342;2024-02-21T04:21:35;13.70;67.30
19281;DHT22;9774;52.034;5.342;2024-02-21T04:24:02;13.70;67.30
19281;DHT22;9774;52.034;5.342;2024-02-21T04:26:32;13.60;67.30
19281;DHT22;9774;52.034;5.342;2024-02-21T04:28:59;13.70;67.30
19281;DHT22;9774;52.034;5.342;2024-02-21T04:31:27;13.70;67.40
19281;DHT22;9774;52.034;5.342;2024-02-21T04:33:54;13.70;67.40
19281;DHT22;9774;52.034;5.342;2024-02-21T04:36:21;13.70;67.40
19281;DHT22;9774;52.034;5.342;2024-02-21T04:38:49;13.60;67.30
19281;DHT22;9774;52.034;5.342;2024-02-21T04:41:16;13.70;67.40
19281;DHT22;9774;52.034;5.342;2024-02-21T04:43:45;13.70;67.50
19281;DHT22;9774;52.034;5.342;2024-02-21T04:46:13;13.70;67.50
19281;DHT22;9774;52.034;5.342;2024-02-21T04:48:41;13.70;67.50
19281;DHT22;9774;52.034;5.342;2024-02-21T04:51:08;13.70;67.40
19281;DHT22;9774;52.034;5.342;2024-02-21T04:53:36;13.70;67.40
19281;DHT22;9774;52.034;5.342;2024-02-21T04:56:03;13.70;67.40
19281;DHT22;9774;52.034;5.342;2024-02-21T04:58:31;13.70;67.40
19281;DHT22;9774;52.034;5.342;2024-02-21T05:00:59;13.70;67.40
19281;DHT22;9774;52.034;5.342;2024-02-21T05:03:26;13.70;67.40
19281;DHT22;9774;52.034;5.342;2024-02-21T05:05:53;13.70;67.40
19281;DHT22;9774;52.034;5.342;2024-02-21T05:08:21;13.70;67.40
19281;DHT22;9774;52.034;5.342;2024-02-21T05:10:48;13.70;67.30
19281;DHT22;9774;52.034;5.342;2024-02-21T05:13:15;13.70;67.30
19281;DHT22;9774;52.034;5.342;2024-02-21T05:15:42;13.70;67.30
19281;DHT22;9774;52.034;5.342;2024-02-21T05:18:10;13.70;67.20
19281;DHT22;9774;52.034;5.342;2024-02-21T05:20:37;13.70;67.30
19281;DHT22;9774;52.034;5.342;2024-02-21T05:23:04;13.70;67.30
19281;DHT22;9774;52.034;5.342;2024-02-21T05:25:32;13.70;67.30
19281;DHT22;9774;52.034;5.342;2024-02-21T05:27:59;13.70;67.30
19281;DHT22;9774;52.034;5.342;2024-02-21T05:30:27;13.70;67.30
19281;DHT22;9774;52.034;5.342;2024-02-21T05:32:55;13.70;67.30
19281;DHT22;9774;52.034;5.342;2024-02-21T05:35:26;13.70;67.30
19281;DHT22;9774;52.034;5.342;2024-02-21T05:37:54;13.70;67.30
19281;DHT22;9774;52.034;5.342;2024-02-21T05:40:21;13.70;67.30
19281;DHT22;9774;52.034;5.342;2024-02-21T05:42:48;13.70;67.40
19281;DHT22;9774;52.034;5.342;2024-02-21T05:45:16;13.70;67.30
19281;DHT22;9774;52.034;5.342;2024-02-21T05:47:44;13.70;67.30
19281;DHT22;9774;52.034;5.342;2024-02-21T05:50:11;13.70;67.30
19281;DHT22;9774;52.034;5.342;2024-02-21T05:52:39;13.70;67.40
19281;DHT22;9774;52.034;5.342;2024-02-21T05:55:07;13.70;67.40
19281;DHT22;9774;52.034;5.342;2024-02-21T05:57:35;13.70;67.40
19281;DHT22;9774;52.034;5.342;2024-02-21T06:00:04;13.70;67.40
19281;DHT22;9774;52.034;5.342;2024-02-21T06:02:32;13.70;67.40
19281;DHT22;9774;52.034;5.342;2024-02-21T06:04:59;13.70;67.40
19281;DHT22;9774;52.034;5.342;2024-02-21T06:07:26;13.70;67.40
19281;DHT22;9774;52.034;5.342;2024-02-21T06:09:56;13.70;67.40
19281;DHT22;9774;52.034;5.342;2024-02-21T06:12:25;13.70;67.30
19281;DHT22;9774;52.034;5.342;2024-02-21T06:14:53;13.60;67.20
19281;DHT22;9774;52.034;5.342;2024-02-21T06:17:21;13.60;67.20
19281;DHT22;9774;52.034;5.342;2024-02-21T06:19:52;13.60;67.20
19281;DHT22;9774;52.034;5.342;2024-02-21T06:22:20;13.60;67.20
19281;DHT22;9774;52.034;5.342;2024-02-21T06:24:47;13.60;67.30
19281;DHT22;9774;52.034;5.342;2024-02-21T06:27:18;13.60;67.30
19281;DHT22;9774;52.034;5.342;2024-02-21T06:29:46;13.60;67.30
19281;DHT22;9774;52.034;5.342;2024-02-21T06:32:14;13.60;67.30
19281;DHT22;9774;52.034;5.342;2024-02-21T06:34:42;13.50;67.20
19281;DHT22;9774;52.034;5.342;2024-02-21T06:37:09;13.50;67.20
19281;DHT22;9774;52.034;5.342;2024-02-21T06:39:43;13.50;67.30
19281;DHT22;9774;52.034;5.342;2024-02-21T06:42:10;13.50;67.20
19281;DHT22;9774;52.034;5.342;2024-02-21T06:44:38;13.50;67.30
19281;DHT22;9774;52.034;5.342;2024-02-21T06:47:06;13.50;67.20
19281;DHT22;9774;52.034;5.342;2024-02-21T06:49:34;13.50;67.20
19281;DHT22;9774;52.034;5.342;2024-02-21T06:52:03;13.40;67.30
19281;DHT22;9774;52.034;5.342;2024-02-21T06:54:31;13.40;67.30
19281;DHT22;9774;52.034;5.342;2024-02-21T06:56:59;13.40;68.00
19281;DHT22;9774;52.034;5.342;2024-02-21T06:59:27;13.40;67.40
19281;DHT22;9774;52.034;5.342;2024-02-21T07:01:57;13.40;67.40
19281;DHT22;9774;52.034;5.342;2024-02-21T07:04:26;13.40;67.40
19281;DHT22;9774;52.034;5.342;2024-02-21T07:06:56;13.40;67.40
19281;DHT22;9774;52.034;5.342;2024-02-21T07:09:25;13.40;67.40
19281;DHT22;9774;52.034;5.342;2024-02-21T07:11:54;13.40;67.50
19281;DHT22;9774;52.034;5.342;2024-02-21T07:14:23;13.40;67.50
19281;DHT22;9774;52.034;5.342;2024-02-21T07:16:52;13.30;67.50
19281;DHT22;9774;52.034;5.342;2024-02-21T07:19:21;13.40;67.50
19281;DHT22;9774;52.034;5.342;2024-02-21T07:21:49;13.30;67.40
19281;DHT22;9774;52.034;5.342;2024-02-21T07:24:17;13.40;67.60
19281;DHT22;9774;52.034;5.342;2024-02-21T07:26:46;13.40;67.60
19281;DHT22;9774;52.034;5.342;2024-02-21T07:29:13;13.40;67.60
19281;DHT22;9774;52.034;5.342;2024-02-21T07:31:41;13.40;67.50
19281;DHT22;9774;52.034;5.342;2024-02-21T07:34:08;13.30;67.50
19281;DHT22;9774;52.034;5.342;2024-02-21T07:36:37;13.40;67.50
19281;DHT22;9774;52.034;5.342;2024-02-21T07:39:04;13.40;67.50
19281;DHT22;9774;52.034;5.342;2024-02-21T07:41:32;13.40;67.50
19281;DHT22;9774;52.034;5.342;2024-02-21T07:44:00;13.30;67.40
19281;DHT22;9774;52.034;5.342;2024-02-21T07:46:28;13.40;67.50
19281;DHT22;9774;52.034;5.342;2024-02-21T07:48:56;13.40;67.50
19281;DHT22;9774;52.034;5.342;2024-02-21T07:51:27;13.30;67.40
19281;DHT22;9774;52.034;5.342;2024-02-21T07:53:56;13.40;67.40
19281;DHT22;9774;52.034;5.342;2024-02-21T07:56:23;13.40;67.50
19281;DHT22;9774;52.034;5.342;2024-02-21T07:58:50;13.40;67.50
19281;DHT22;9774;52.034;5.342;2024-02-21T08:01:18;13.40;67.50
19281;DHT22;9774;52.034;5.342;2024-02-21T08:03:46;13.40;67.50
19281;DHT22;9774;52.034;5.342;2024-02-21T08:06:14;13.40;67.50
19281;DHT22;9774;52.034;5.342;2024-02-21T08:08:41;13.40;67.50
19281;DHT22;9774;52.034;5.342;2024-02-21T08:11:09;13.40;67.50
19281;DHT22;9774;52.034;5.342;2024-02-21T08:13:36;13.40;67.60
19281;DHT22;9774;52.034;5.342;2024-02-21T08:16:04;13.40;67.60
19281;DHT22;9774;52.034;5.342;2024-02-21T08:18:31;13.40;67.70
19281;DHT22;9774;52.034;5.342;2024-02-21T08:21:01;13.50;67.70
19281;DHT22;9774;52.034;5.342;2024-02-21T08:23:30;13.50;67.70
19281;DHT22;9774;52.034;5.342;2024-02-21T08:25:57;13.50;67.70
19281;DHT22;9774;52.034;5.342;2024-02-21T08:28:25;13.50;67.60
19281;DHT22;9774;52.034;5.342;2024-02-21T08:30:55;13.60;67.70
19281;DHT22;9774;52.034;5.342;2024-02-21T08:33:22;13.60;67.60
19281;DHT22;9774;52.034;5.342;2024-02-21T08:35:51;13.60;67.60
19281;DHT22;9774;52.034;5.342;2024-02-21T08:38:18;13.60;67.60
19281;DHT22;9774;52.034;5.342;2024-02-21T08:40:45;13.60;67.60
19281;DHT22;9774;52.034;5.342;2024-02-21T08:43:12;13.70;67.60
19281;DHT22;9774;52.034;5.342;2024-02-21T08:45:41;13.70;67.50
19281;DHT22;9774;52.034;5.342;2024-02-21T08:48:08;13.70;68.10
19281;DHT22;9774;52.034;5.342;2024-02-21T08:50:35;13.70;67.40
19281;DHT22;9774;52.034;5.342;2024-02-21T08:53:03;13.80;67.40
19281;DHT22;9774;52.034;5.342;2024-02-21T08:55:31;13.80;67.40
19281;DHT22;9774;52.034;5.342;2024-02-21T08:57:58;13.80;67.30
19281;DHT22;9774;52.034;5.342;2024-02-21T09:00:25;13.80;67.10
19281;DHT22;9774;52.034;5.342;2024-02-21T09:02:54;13.80;67.10
19281;DHT22;9774;52.034;5.342;2024-02-21T09:05:23;13.80;67.10
19281;DHT22;9774;52.034;5.342;2024-02-21T09:07:50;13.80;67.20
19281;DHT22;9774;52.034;5.342;2024-02-21T09:10:17;13.80;67.20
19281;DHT22;9774;52.034;5.342;2024-02-21T09:12:45;13.80;67.10
19281;DHT22;9774;52.034;5.342;2024-02-21T09:15:13;13.90;67.20
19281;DHT22;9774;52.034;5.342;2024-02-21T09:17:40;13.90;67.10
19281;DHT22;9774;52.034;5.342;2024-02-21T09:20:09;13.90;67.10
19281;DHT22;9774;52.034;5.342;2024-02-21T09:22:41;14.00;67.00
19281;DHT22;9774;52.034;5.342;2024-02-21T09:25:09;14.00;66.80
19281;DHT22;9774;52.034;5.342;2024-02-21T09:27:37;14.00;66.80
19281;DHT22;9774;52.034;5.342;2024-02-21T09:30:06;14.00;66.70
19281;DHT22;9774;52.034;5.342;2024-02-21T09:32:33;14.10;66.70
19281;DHT22;9774;52.034;5.342;2024-02-21T09:35:01;14.00;66.70
19281;DHT22;9774;52.034;5.342;2024-02-21T09:37:30;14.00;66.80
19281;DHT22;9774;52.034;5.342;2024-02-21T09:39:57;14.10;66.80
19281;DHT22;9774;52.034;5.342;2024-02-21T09:42:34;14.10;66.60
19281;DHT22;9774;52.034;5.342;2024-02-21T09:45:08;14.10;66.60
19281;DHT22;9774;52.034;5.342;2024-02-21T09:47:47;14.10;66.60
19281;DHT22;9774;52.034;5.342;2024-02-21T09:50:21;14.20;66.60
19281;DHT22;9774;52.034;5.342;2024-02-21T09:52:54;14.20;66.50
19281;DHT22;9774;52.034;5.342;2024-02-21T09:55:23;14.20;66.40
19281;DHT22;9774;52.034;5.342;2024-02-21T09:57:53;14.20;66.40
19281;DHT22;9774;52.034;5.342;2024-02-21T10:00:21;14.20;66.40
19281;DHT22;9774;52.034;5.342;2024-02-21T10:02:49;14.30;66.40
19281;DHT22;9774;52.034;5.342;2024-02-21T10:05:16;14.30;66.50
19281;DHT22;9774;52.034;5.342;2024-02-21T10:07:44;14.30;66.40
19281;DHT22;9774;52.034;5.342;2024-02-21T10:10:12;14.30;66.30
19281;DHT22;9774;52.034;5.342;2024-02-21T10:12:48;14.40;66.20
19281;DHT22;9774;52.034;5.342;2024-02-21T10:15:20;14.40;66.10
19281;DHT22;9774;52.034;5.342;2024-02-21T10:17:49;14.40;66.20
19281;DHT22;9774;52.034;5.342;2024-02-21T10:20:17;14.50;66.20
19281;DHT22;9774;52.034;5.342;2024-02-21T10:22:44;14.50;66.20
19281;DHT22;9774;52.034;5.342;2024-02-21T10:25:13;14.50;66.30
19281;DHT22;9774;52.034;5.342;2024-02-21T10:27:40;14.60;66.20
19281;DHT22;9774;52.034;5.342;2024-02-21T10:30:13;14.60;66.10
19281;DHT22;9774;52.034;5.342;2024-02-21T10:32:49;14.60;65.80
19281;DHT22;9774;52.034;5.342;2024-02-21T10:35:26;14.70;65.80
19281;DHT22;9774;52.034;5.342;2024-02-21T10:37:54;14.70;65.80
19281;DHT22;9774;52.034;5.342;2024-02-21T10:40:25;14.70;65.80
19281;DHT22;9774;52.034;5.342;2024-02-21T10:42:57;14.80;65.70
19281;DHT22;9774;52.034;5.342;2024-02-21T10:45:30;14.70;65.60
19281;DHT22;9774;52.034;5.342;2024-02-21T10:48:14;14.80;65.70
19281;DHT22;9774;52.034;5.342;2024-02-21T10:50:58;14.80;65.70
19281;DHT22;9774;52.034;5.342;2024-02-21T10:53:36;14.80;65.70
19281;DHT22;9774;52.034;5.342;2024-02-21T10:56:21;14.80;65.90
19281;DHT22;9774;52.034;5.342;2024-02-21T10:58:53;14.90;65.90
19281;DHT22;9774;52.034;5.342;2024-02-21T11:01:21;14.90;65.90
19281;DHT22;9774;52.034;5.342;2024-02-21T11:03:52;14.90;65.80
19281;DHT22;9774;52.034;5.342;2024-02-21T11:06:21;15.00;65.80
19281;DHT22;9774;52.034;5.342;2024-02-21T11:09:02;15.00;65.80
19281;DHT22;9774;52.034;5.342;2024-02-21T11:11:33;15.00;66.40
19281;DHT22;9774;52.034;5.342;2024-02-21T11:14:07;15.00;65.60
19281;DHT22;9774;52.034;5.342;2024-02-21T11:16:36;15.10;65.40
19281;DHT22;9774;52.034;5.342;2024-02-21T11:19:07;15.00;65.30
19281;DHT22;9774;52.034;5.342;2024-02-21T11:21:37;15.00;65.20
19281;DHT22;9774;52.034;5.342;2024-02-21T11:24:05;15.00;65.00
19281;DHT22;9774;52.034;5.342;2024-02-21T11:26:36;15.00;65.00
19281;DHT22;9774;52.034;5.342;2024-02-21T11:29:04;14.90;65.00
19281;DHT22;9774;52.034;5.342;2024-02-21T11:31:41;14.90;65.00
19281;DHT22;9774;52.034;5.342;2024-02-21T11:34:11;14.80;64.90
19281;DHT22;9774;52.034;5.342;2024-02-21T11:36:46;14.80;64.90
19281;DHT22;9774;52.034;5.342;2024-02-21T11:39:21;14.80;64.90
19281;DHT22;9774;52.034;5.342;2024-02-21T11:42:06;14.70;65.00
19281;DHT22;9774;52.034;5.342;2024-02-21T11:44:36;14.70;64.90
19281;DHT22;9774;52.034;5.342;2024-02-21T11:47:06;14.70;65.10
19281;DHT22;9774;52.034;5.342;2024-02-21T11:49:37;14.60;65.10
19281;DHT22;9774;52.034;5.342;2024-02-21T11:52:06;14.60;65.20
19281;DHT22;9774;52.034;5.342;2024-02-21T11:54:34;14.60;65.40
19281;DHT22;9774;52.034;5.342;2024-02-21T11:57:01;14.60;65.50
19281;DHT22;9774;52.034;5.342;2024-02-21T11:59:31;14.60;65.60
19281;DHT22;9774;52.034;5.342;2024-02-21T12:02:00;14.60;65.60
19281;DHT22;9774;52.034;5.342;2024-02-21T12:04:29;14.60;65.60
19281;DHT22;9774;52.034;5.342;2024-02-21T12:06:57;14.70;65.80
19281;DHT22;9774;52.034;5.342;2024-02-21T12:09:26;14.70;65.90
19281;DHT22;9774;52.034;5.342;2024-02-21T12:12:00;14.80;66.00
19281;DHT22;9774;52.034;5.342;2024-02-21T12:14:31;14.80;65.90
19281;DHT22;9774;52.034;5.342;2024-02-21T12:16:59;14.90;65.90
19281;DHT22;9774;52.034;5.342;2024-02-21T12:19:30;15.00;66.00
19281;DHT22;9774;52.034;5.342;2024-02-21T12:21:59;15.00;65.80
19281;DHT22;9774;52.034;5.342;2024-02-21T12:24:27;15.10;65.50
19281;DHT22;9774;52.034;5.342;2024-02-21T12:26:56;15.10;65.30
19281;DHT22;9774;52.034;5.342;2024-02-21T12:29:24;15.10;65.20
19281;DHT22;9774;52.034;5.342;2024-02-21T12:31:53;15.20;65.10
19281;DHT22;9774;52.034;5.342;2024-02-21T12:34:20;15.20;65.10
19281;DHT22;9774;52.034;5.342;2024-02-21T12:36:50;15.20;64.70
19281;DHT22;9774;52.034;5.342;2024-02-21T12:39:17;15.20;64.80
19281;DHT22;9774;52.034;5.342;2024-02-21T12:41:44;15.20;64.70
19281;DHT22;9774;52.034;5.342;2024-02-21T12:44:11;15.20;64.60
19281;DHT22;9774;52.034;5.342;2024-02-21T12:46:39;15.20;64.70
19281;DHT22;9774;52.034;5.342;2024-02-21T12:49:07;15.20;64.70
19281;DHT22;9774;52.034;5.342;2024-02-21T12:51:35;15.20;64.60
19281;DHT22;9774;52.034;5.342;2024-02-21T12:54:05;15.30;64.70
19281;DHT22;9774;52.034;5.342;2024-02-21T12:56:36;15.30;64.70
19281;DHT22;9774;52.034;5.342;2024-02-21T12:59:05;15.30;64.60
19281;DHT22;9774;52.034;5.342;2024-02-21T13:01:34;15.30;64.70
19281;DHT22;9774;52.034;5.342;2024-02-21T13:04:02;15.30;64.70
19281;DHT22;9774;52.034;5.342;2024-02-21T13:06:30;15.40;64.50
19281;DHT22;9774;52.034;5.342;2024-02-21T13:08:57;15.40;64.50
19281;DHT22;9774;52.034;5.342;2024-02-21T13:11:28;15.40;64.50
19281;DHT22;9774;52.034;5.342;2024-02-21T13:13:56;15.40;64.40
19281;DHT22;9774;52.034;5.342;2024-02-21T13:16:23;15.50;64.40
19281;DHT22;9774;52.034;5.342;2024-02-21T13:18:51;15.50;64.30
19281;DHT22;9774;52.034;5.342;2024-02-21T13:21:19;15.40;64.20
19281;DHT22;9774;52.034;5.342;2024-02-21T13:23:47;15.50;64.20
19281;DHT22;9774;52.034;5.342;2024-02-21T13:26:15;15.50;64.00
19281;DHT22;9774;52.034;5.342;2024-02-21T13:28:46;15.50;64.00
19281;DHT22;9774;52.034;5.342;2024-02-21T13:31:14;15.50;63.70
19281;DHT22;9774;52.034;5.342;2024-02-21T13:33:42;15.50;63.70
19281;DHT22;9774;52.034;5.342;2024-02-21T13:36:10;15.50;63.50
19281;DHT22;9774;52.034;5.342;2024-02-21T13:38:37;15.40;63.60
19281;DHT22;9774;52.034;5.342;2024-02-21T13:41:06;15.40;63.60
19281;DHT22;9774;52.034;5.342;2024-02-21T13:43:33;15.40;63.60
19281;DHT22;9774;52.034;5.342;2024-02-21T13:46:01;15.40;64.40
19281;DHT22;9774;52.034;5.342;2024-02-21T13:48:30;15.40;63.70
19281;DHT22;9774;52.034;5.342;2024-02-21T13:50:58;15.40;63.70
19281;DHT22;9774;52.034;5.342;2024-02-21T13:53:27;15.40;63.60
19281;DHT22;9774;52.034;5.342;2024-02-21T13:55:55;15.40;63.60
19281;DHT22;9774;52.034;5.342;2024-02-21T13:58:23;15.40;63.50
19281;DHT22;9774;52.034;5.342;2024-02-21T14:00:51;15.40;63.60
19281;DHT22;9774;52.034;5.342;2024-02-21T14:03:19;15.40;63.60
19281;DHT22;9774;52.034;5.342;2024-02-21T14:05:46;15.40;63.60
19281;DHT22;9774;52.034;5.342;2024-02-21T14:08:14;15.40;63.60
19281;DHT22;9774;52.034;5.342;2024-02-21T14:10:41;15.40;63.50
19281;DHT22;9774;52.034;5.342;2024-02-21T14:13:08;15.30;63.40
19281;DHT22;9774;52.034;5.342;2024-02-21T14:15:38;15.40;63.40
19281;DHT22;9774;52.034;5.342;2024-02-21T14:18:06;15.30;63.30
19281;DHT22;9774;52.034;5.342;2024-02-21T14:20:35;15.40;63.40
19281;DHT22;9774;52.034;5.342;2024-02-21T14:23:02;15.40;63.30
19281;DHT22;9774;52.034;5.342;2024-02-21T14:25:30;15.40;64.00
19281;DHT22;9774;52.034;5.342;2024-02-21T14:28:00;15.30;63.20
19281;DHT22;9774;52.034;5.342;2024-02-21T14:30:28;15.30;63.10
19281;DHT22;9774;52.034;5.342;2024-02-21T14:32:56;15.30;63.20
19281;DHT22;9774;52.034;5.342;2024-02-21T14:35:23;15.30;63.10
19281;DHT22;9774;52.034;5.342;2024-02-21T14:37:51;15.30;63.10
19281;DHT22;9774;52.034;5.342;2024-02-21T14:40:21;15.30;63.10
19281;DHT22;9774;52.034;5.342;2024-02-21T14:42:48;15.30;63.20
19281;DHT22;9774;52.034;5.342;2024-02-21T14:45:15;15.30;63.20
19281;DHT22;9774;52.034;5.342;2024-02-21T14:47:43;15.30;63.20
19281;DHT22;9774;52.034;5.342;2024-02-21T14:50:11;15.20;63.00
19281;DHT22;9774;52.034;5.342;2024-02-21T14:52:38;15.20;63.10
19281;DHT22;9774;52.034;5.342;2024-02-21T14:55:06;15.20;63.00
19281;DHT22;9774;52.034;5.342;2024-02-21T14:57:33;15.20;63.00
19281;DHT22;9774;52.034;5.342;2024-02-21T15:00:01;15.20;62.80
19281;DHT22;9774;52.034;5.342;2024-02-21T15:02:33;15.10;62.80
19281;DHT22;9774;52.034;5.342;2024-02-21T15:05:00;15.10;62.90
19281;DHT22;9774;52.034;5.342;2024-02-21T15:07:29;15.10;62.90
19281;DHT22;9774;52.034;5.342;2024-02-21T15:09:57;15.00;63.00
19281;DHT22;9774;52.034;5.342;2024-02-21T15:12:24;15.00;63.30
19281;DHT22;9774;52.034;5.342;2024-02-21T15:14:52;15.00;63.50
19281;DHT22;9774;52.034;5.342;2024-02-21T15:17:21;14.90;63.50
19281;DHT22;9774;52.034;5.342;2024-02-21T15:19:48;14.90;63.60
19281;DHT22;9774;52.034;5.342;2024-02-21T15:22:15;14.90;63.60
19281;DHT22;9774;52.034;5.342;2024-02-21T15:24:44;14.80;63.70
19281;DHT22;9774;52.034;5.342;2024-02-21T15:27:15;14.80;63.90
19281;DHT22;9774;52.034;5.342;2024-02-21T15:29:43;14.70;63.90
19281;DHT22;9774;52.034;5.342;2024-02-21T15:32:10;14.70;64.00
19281;DHT22;9774;52.034;5.342;2024-02-21T15:34:37;14.60;64.10
19281;DHT22;9774;52.034;5.342;2024-02-21T15:37:05;14.60;64.30
19281;DHT22;9774;52.034;5.342;2024-02-21T15:39:32;14.50;64.30
19281;DHT22;9774;52.034;5.342;2024-02-21T15:42:00;14.50;64.40
19281;DHT22;9774;52.034;5.342;2024-02-21T15:44:28;14.40;64.40
19281;DHT22;9774;52.034;5.342;2024-02-21T15:46:55;14.40;64.60
19281;DHT22;9774;52.034;5.342;2024-02-21T15:49:23;14.40;64.60
19281;DHT22;9774;52.034;5.342;2024-02-21T15:51:50;14.40;64.80
19281;DHT22;9774;52.034;5.342;2024-02-21T15:54:18;14.30;64.90